Time;durP1;ratioP1;P1;durP2;ratioP2;P2;SDS_P1;SDS_P2;PMS_P1;PMS_P2;Temp;Humidity;BMP_temperature;BMP_pressure;BME280_temperature;BME280_humidity;BME280_pressure;Samples;Min_cycle;Max_cycle;Signal;HPM_P1;HPM_P2
2023/01/01 00:01:11;;;;;;;31.60;17.65;;;;;;;;;;5038808;28;20553;-64
2023/01/01 00:03:37;;;;;;;26.95;17.15;;;;;;;;;;5023360;28;20036;-64
2023/01/01 00:06:06;;;;;;;25.83;16.52;;;;;;;;;;5043203;28;20052;-64
2023/01/01 00:08:32;;;;;;;24.35;14.63;;;;;;;;;;5039612;28;20083;-64
2023/01/01 00:11:02;;;;;;;27.73;13.15;;;;;;;;;;5039994;28;20077;-64
2023/01/01 00:13:28;;;;;;;28.52;16.23;;;;;;;;;;5031599;28;20465;-64
2023/01/01 00:15:54;;;;;;;26.33;15.02;;;;;;;;;;5013654;28;20120;-65
2023/01/01 00:18:20;;;;;;;36.38;18.50;;;;;;;;;;5048900;28;20040;-65
2023/01/01 00:20:46;;;;;;;39.95;20.05;;;;;;;;;;5051335;28;20037;-65
2023/01/01 00:23:12;;;;;;;34.92;20.58;;;;;;;;;;5049991;28;20064;-65
2023/01/01 00:25:41;;;;;;;31.90;18.42;;;;;;;;;;5033221;28;20044;-65
2023/01/01 00:28:08;;;;;;;37.50;18.80;;;;;;;;;;5014221;28;20060;-65
2023/01/01 00:30:35;;;;;;;36.20;20.08;;;;;;;;;;5031312;28;20338;-65
2023/01/01 00:33:01;;;;;;;32.75;19.85;;;;;;;;;;5044043;28;20530;-65
2023/01/01 00:35:27;;;;;;;31.17;20.33;;;;;;;;;;5036092;28;20060;-65
2023/01/01 00:37:53;;;;;;;33.63;20.25;;;;;;;;;;5034595;28;20044;-65
2023/01/01 00:40:19;;;;;;;38.95;23.45;;;;;;;;;;5032055;28;20067;-65
2023/01/01 00:42:45;;;;;;;41.85;23.77;;;;;;;;;;5033605;28;20087;-65
2023/01/01 00:45:11;;;;;;;37.28;23.98;;;;;;;;;;5031174;28;20129;-65
2023/01/01 00:47:37;;;;;;;34.53;20.02;;;;;;;;;;5048553;28;20509;-65
2023/01/01 00:50:03;;;;;;;39.45;23.15;;;;;;;;;;5031350;28;20037;-65
2023/01/01 00:52:29;;;;;;;36.75;21.90;;;;;;;;;;5047252;28;20041;-65
2023/01/01 00:54:55;;;;;;;37.58;22.67;;;;;;;;;;5031288;28;20410;-65
2023/01/01 00:57:21;;;;;;;34.42;20.58;;;;;;;;;;5030839;28;20045;-64
2023/01/01 00:59:48;;;;;;;34.85;18.90;;;;;;;;;;5031033;28;20052;-65
2023/01/01 01:02:14;;;;;;;29.02;17.52;;;;;;;;;;5048307;28;20074;-64
2023/01/01 01:04:40;;;;;;;28.60;18.65;;;;;;;;;;5033758;28;20483;-64
2023/01/01 01:07:06;;;;;;;26.92;16.75;;;;;;;;;;5038381;28;20040;-64
2023/01/01 01:09:32;;;;;;;30.77;15.85;;;;;;;;;;5056196;28;20457;-65
2023/01/01 01:11:58;;;;;;;28.23;14.60;;;;;;;;;;5035078;28;20402;-64
2023/01/01 01:14:24;;;;;;;27.00;14.88;;;;;;;;;;5036594;28;21363;-64
2023/01/01 01:16:50;;;;;;;27.50;14.70;;;;;;;;;;5052408;28;20037;-64
2023/01/01 01:19:18;;;;;;;27.58;15.13;;;;;;;;;;5034821;28;20041;-65
2023/01/01 01:21:46;;;;;;;33.80;16.42;;;;;;;;;;5043698;28;20045;-64
2023/01/01 01:24:12;;;;;;;28.88;15.82;;;;;;;;;;5028951;28;20095;-64
2023/01/01 01:26:38;;;;;;;35.88;16.75;;;;;;;;;;5054384;28;20086;-65
2023/01/01 01:29:04;;;;;;;27.45;13.65;;;;;;;;;;5052665;28;20045;-64
2023/01/01 01:31:32;;;;;;;28.15;15.10;;;;;;;;;;5054135;28;20040;-64
2023/01/01 01:33:58;;;;;;;24.95;14.27;;;;;;;;;;5017218;28;20060;-64
2023/01/01 01:36:24;;;;;;;27.75;15.93;;;;;;;;;;5043691;28;20041;-64
2023/01/01 01:38:50;;;;;;;24.30;15.13;;;;;;;;;;5043904;28;20042;-64
2023/01/01 01:41:18;;;;;;;23.55;12.70;;;;;;;;;;5045677;28;20051;-64
2023/01/01 01:43:44;;;;;;;26.58;16.15;;;;;;;;;;5032833;28;20037;-64
2023/01/01 01:46:12;;;;;;;30.15;15.48;;;;;;;;;;5068477;23;20159;-62
2023/01/01 01:48:40;;;;;;;28.98;16.40;;;;;;;;;;5051139;28;20396;-62
2023/01/01 01:51:06;;;;;;;30.13;18.08;;;;;;;;;;5061279;28;20045;-62
2023/01/01 01:53:34;;;;;;;28.38;18.92;;;;;;;;;;5042980;28;20062;-62
2023/01/01 01:56:02;;;;;;;30.92;17.17;;;;;;;;;;5074076;28;20033;-62
2023/01/01 01:58:30;;;;;;;31.45;17.63;;;;;;;;;;5064074;28;20102;-62
2023/01/01 02:00:56;;;;;;;32.03;18.27;;;;;;;;;;5060076;28;20036;-62
2023/01/01 02:03:32;;;;;;;35.20;18.08;;;;;;;;;;5053038;28;20037;-62
2023/01/01 02:05:58;;;;;;;27.77;17.13;;;;;;;;;;5035315;28;20124;-62
2023/01/01 02:08:25;;;;;;;30.73;16.48;;;;;;;;;;5054038;28;20454;-62
2023/01/01 02:10:51;;;;;;;29.27;17.52;;;;;;;;;;5053666;28;20079;-61
2023/01/01 02:13:17;;;;;;;32.45;16.98;;;;;;;;;;5057803;28;20382;-62
2023/01/01 02:16:02;;;;;;;28.35;17.30;;;;;;;;;;5055567;28;20037;-62
2023/01/01 02:18:38;;;;;;;30.80;16.42;;;;;;;;;;5058257;28;20040;-62
2023/01/01 02:21:07;;;;;;;26.92;15.35;;;;;;;;;;5055255;28;20551;-62
2023/01/01 02:23:48;;;;;;;29.02;15.88;;;;;;;;;;5055320;28;20534;-62
2023/01/01 02:26:20;;;;;;;27.25;15.50;;;;;;;;;;5060571;28;20068;-62
2023/01/01 02:28:52;;;;;;;29.98;15.98;;;;;;;;;;5073078;28;20083;-62
2023/01/01 02:31:24;;;;;;;29.63;15.48;;;;;;;;;;5056446;28;20040;-62
2023/01/01 02:33:52;;;;;;;27.35;13.80;;;;;;;;;;5064265;28;20426;-62
2023/01/01 02:36:19;;;;;;;24.67;13.77;;;;;;;;;;5070123;28;20094;-62
2023/01/01 02:38:48;;;;;;;24.67;12.90;;;;;;;;;;5062681;28;20041;-62
2023/01/01 02:41:22;;;;;;;20.33;12.35;;;;;;;;;;5064719;28;20556;-62
2023/01/01 02:43:48;;;;;;;22.30;11.40;;;;;;;;;;5070744;28;20047;-62
2023/01/01 02:46:14;;;;;;;18.90;9.55;;;;;;;;;;5051101;28;20044;-62
2023/01/01 02:48:48;;;;;;;22.70;9.93;;;;;;;;;;5059043;28;20041;-62
2023/01/01 02:51:17;;;;;;;18.67;8.90;;;;;;;;;;5068708;28;20423;-62
2023/01/01 02:53:46;;;;;;;20.85;9.15;;;;;;;;;;5060492;28;20080;-62
2023/01/01 02:56:31;;;;;;;17.05;8.63;;;;;;;;;;5072556;28;20040;-62
2023/01/01 03:01:53;;;;;;;17.95;7.90;;;;;;;;;;5051501;28;20517;-62
2023/01/01 03:04:19;;;;;;;21.67;8.57;;;;;;;;;;5072483;28;20383;-62
2023/01/01 03:07:05;;;;;;;14.43;7.28;;;;;;;;;;5064852;28;20033;-62
2023/01/01 03:09:34;;;;;;;14.38;5.45;;;;;;;;;;5067414;28;20046;-62
2023/01/01 03:12:15;;;;;;;14.48;6.28;;;;;;;;;;5072334;28;20414;-62
2023/01/01 03:14:48;;;;;;;10.60;5.78;;;;;;;;;;5046043;28;20401;-62
2023/01/01 03:17:31;;;;;;;12.20;4.93;;;;;;;;;;5065552;28;20048;-62
2023/01/01 03:19:59;;;;;;;12.48;4.55;;;;;;;;;;5059840;28;20410;-62
2023/01/01 03:22:28;;;;;;;12.15;3.92;;;;;;;;;;5051782;28;20044;-62
2023/01/01 03:24:59;;;;;;;10.10;3.60;;;;;;;;;;5053806;28;20043;-62
2023/01/01 03:27:35;;;;;;;14.82;3.70;;;;;;;;;;5071598;28;20040;-62
2023/01/01 03:30:07;;;;;;;9.50;3.13;;;;;;;;;;5056185;28;20052;-62
2023/01/01 03:32:59;;;;;;;11.75;3.35;;;;;;;;;;5062847;28;20102;-62
2023/01/01 03:35:26;;;;;;;10.05;3.92;;;;;;;;;;5063547;28;20041;-62
2023/01/01 03:37:55;;;;;;;11.90;3.40;;;;;;;;;;5063466;28;20072;-62
2023/01/01 03:40:21;;;;;;;8.55;2.92;;;;;;;;;;5063266;28;20402;-62
2023/01/01 03:42:59;;;;;;;8.63;3.55;;;;;;;;;;5068887;28;20115;-62
2023/01/01 03:45:27;;;;;;;5.57;2.75;;;;;;;;;;5051801;28;20040;-62
2023/01/01 03:47:54;;;;;;;7.38;2.97;;;;;;;;;;5050689;28;20078;-62
2023/01/01 03:50:22;;;;;;;10.57;3.15;;;;;;;;;;5042188;28;20049;-62
2023/01/01 03:52:56;;;;;;;10.20;3.10;;;;;;;;;;5050806;28;20036;-62
2023/01/01 03:55:34;;;;;;;8.10;3.38;;;;;;;;;;5051980;28;20045;-63
2023/01/01 03:58:23;;;;;;;6.47;2.92;;;;;;;;;;5051380;28;20045;-63
2023/01/01 04:00:50;;;;;;;8.80;3.03;;;;;;;;;;5061331;28;20592;-63
2023/01/01 04:03:20;;;;;;;12.98;3.05;;;;;;;;;;5058985;28;20071;-63
2023/01/01 04:05:46;;;;;;;6.72;2.70;;;;;;;;;;5069699;28;20040;-63
2023/01/01 04:08:13;;;;;;;9.20;3.30;;;;;;;;;;5052979;28;20044;-63
2023/01/01 04:10:42;;;;;;;7.68;2.22;;;;;;;;;;5071972;28;20119;-63
2023/01/01 04:13:08;;;;;;;7.65;2.55;;;;;;;;;;5067774;28;20067;-62
2023/01/01 04:15:35;;;;;;;8.10;2.70;;;;;;;;;;5044945;28;20057;-63
2023/01/01 04:18:01;;;;;;;9.30;3.00;;;;;;;;;;5058994;28;20243;-62
2023/01/01 04:20:27;;;;;;;7.53;2.60;;;;;;;;;;5066976;28;20486;-63
2023/01/01 04:22:55;;;;;;;9.93;2.67;;;;;;;;;;5071460;28;20032;-63
2023/01/01 04:25:21;;;;;;;6.88;2.55;;;;;;;;;;5071340;28;20170;-63
2023/01/01 04:27:48;;;;;;;6.40;2.40;;;;;;;;;;5043442;28;20492;-63
2023/01/01 04:30:14;;;;;;;9.00;2.50;;;;;;;;;;5052561;28;20037;-63
2023/01/01 04:32:41;;;;;;;7.70;2.95;;;;;;;;;;5050584;28;20506;-62
2023/01/01 04:35:08;;;;;;;11.65;3.15;;;;;;;;;;5063781;28;20518;-63
2023/01/01 04:37:37;;;;;;;8.05;2.63;;;;;;;;;;5071075;28;20506;-63
2023/01/01 04:40:04;;;;;;;6.70;2.03;;;;;;;;;;5071612;28;20044;-63
2023/01/01 04:42:30;;;;;;;5.07;2.60;;;;;;;;;;5052966;28;20471;-63
2023/01/01 04:44:56;;;;;;;10.35;3.00;;;;;;;;;;5040761;28;20072;-63
2023/01/01 04:47:22;;;;;;;10.27;2.60;;;;;;;;;;5061366;28;20055;-63
2023/01/01 04:49:48;;;;;;;8.88;2.53;;;;;;;;;;5074350;28;20044;-62
2023/01/01 04:52:14;;;;;;;8.40;2.17;;;;;;;;;;5075272;28;20573;-62
2023/01/01 04:54:40;;;;;;;8.75;2.15;;;;;;;;;;5075024;28;20044;-62
2023/01/01 04:57:06;;;;;;;6.15;2.75;;;;;;;;;;5075323;28;20430;-62
2023/01/01 04:59:32;;;;;;;7.32;2.50;;;;;;;;;;5055471;28;20112;-62
2023/01/01 05:01:58;;;;;;;9.23;2.00;;;;;;;;;;5037383;28;20044;-62
2023/01/01 05:04:23;;;;;;;5.65;1.70;;;;;;;;;;5054762;28;20491;-62
2023/01/01 05:06:49;;;;;;;6.18;1.92;;;;;;;;;;5044236;28;20049;-62
2023/01/01 05:09:15;;;;;;;7.03;2.22;;;;;;;;;;5068489;28;20478;-62
2023/01/01 05:11:41;;;;;;;9.52;2.50;;;;;;;;;;5072999;28;20097;-63
2023/01/01 05:14:07;;;;;;;5.10;1.95;;;;;;;;;;5062540;28;20041;-63
2023/01/01 05:16:35;;;;;;;12.77;2.88;;;;;;;;;;5051998;28;20048;-63
2023/01/01 05:19:01;;;;;;;5.68;1.80;;;;;;;;;;5054507;28;20044;-63
2023/01/01 05:21:32;;;;;;;9.10;2.28;;;;;;;;;;5050009;28;20521;-62
2023/01/01 05:23:58;;;;;;;;;;;;;;;;;;5065061;28;20044;-62
2023/01/01 05:26:26;;;;;;;7.22;1.77;;;;;;;;;;5073704;28;19916;-63
2023/01/01 05:28:52;;;;;;;6.55;1.80;;;;;;;;;;5062885;28;20040;-63
2023/01/01 05:31:19;;;;;;;6.90;1.90;;;;;;;;;;5062546;28;20404;-63
2023/01/01 05:33:45;;;;;;;5.70;1.58;;;;;;;;;;5045175;28;20049;-62
2023/01/01 05:36:21;;;;;;;3.22;1.00;;;;;;;;;;5074614;28;20055;-62
2023/01/01 05:38:47;;;;;;;4.53;1.00;;;;;;;;;;5074121;28;20044;-62
2023/01/01 05:41:14;;;;;;;8.52;1.20;;;;;;;;;;5071401;28;20452;-63
2023/01/01 05:43:40;;;;;;;5.65;1.58;;;;;;;;;;5065520;28;20111;-62
2023/01/01 05:46:10;;;;;;;5.07;1.30;;;;;;;;;;5050629;28;20124;-63
2023/01/01 05:48:36;;;;;;;5.18;1.50;;;;;;;;;;5061869;28;20094;-63
2023/01/01 05:51:05;;;;;;;4.45;1.00;;;;;;;;;;5074173;28;20040;-62
2023/01/01 05:53:31;;;;;;;3.58;1.20;;;;;;;;;;5073450;28;20459;-62
2023/01/01 05:55:58;;;;;;;7.07;1.27;;;;;;;;;;5067496;28;20521;-63
2023/01/01 05:58:24;;;;;;;3.15;1.08;;;;;;;;;;5065690;28;20123;-63
2023/01/01 06:00:50;;;;;;;3.90;1.00;;;;;;;;;;5068900;28;20524;-63
2023/01/01 06:03:16;;;;;;;4.15;1.10;;;;;;;;;;5067525;28;20032;-63
2023/01/01 06:05:42;;;;;;;4.72;0.90;;;;;;;;;;5073376;28;20068;-63
2023/01/01 06:08:08;;;;;;;2.28;1.00;;;;;;;;;;5073939;28;20548;-63
2023/01/01 06:10:34;;;;;;;7.13;1.50;;;;;;;;;;5054229;28;20045;-62
2023/01/01 06:13:00;;;;;;;5.65;1.38;;;;;;;;;;5055400;28;20089;-62
2023/01/01 06:15:26;;;;;;;4.05;1.17;;;;;;;;;;5053802;28;20052;-62
2023/01/01 06:17:52;;;;;;;5.80;1.08;;;;;;;;;;5062082;28;20041;-62
2023/01/01 06:20:18;;;;;;;5.68;1.60;;;;;;;;;;5053688;28;20041;-62
2023/01/01 06:22:44;;;;;;;3.70;1.33;;;;;;;;;;5052965;28;20478;-62
2023/01/01 06:25:10;;;;;;;3.40;1.20;;;;;;;;;;5056162;28;20049;-62
2023/01/01 06:27:37;;;;;;;3.53;1.25;;;;;;;;;;5065405;28;20036;-62
2023/01/01 06:30:04;;;;;;;4.80;1.20;;;;;;;;;;5062745;28;20402;-62
2023/01/01 06:32:30;;;;;;;11.32;1.52;;;;;;;;;;5068833;28;20814;-62
2023/01/01 06:34:56;;;;;;;5.05;1.10;;;;;;;;;;5072678;28;20036;-62
2023/01/01 06:37:22;;;;;;;4.53;1.45;;;;;;;;;;5073000;28;20032;-62
2023/01/01 06:39:48;;;;;;;4.43;1.20;;;;;;;;;;5064171;28;20517;-62
2023/01/01 06:42:14;;;;;;;3.17;1.23;;;;;;;;;;5060737;28;20045;-62
2023/01/01 06:44:40;;;;;;;7.80;1.75;;;;;;;;;;5042189;28;20048;-62
2023/01/01 06:47:06;;;;;;;5.53;1.48;;;;;;;;;;5064819;28;20039;-62
2023/01/01 06:49:32;;;;;;;6.65;1.40;;;;;;;;;;5054866;28;20044;-62
2023/01/01 06:51:58;;;;;;;4.72;1.50;;;;;;;;;;5072777;28;20049;-62
2023/01/01 06:54:24;;;;;;;4.30;1.58;;;;;;;;;;5071472;28;20421;-62
2023/01/01 06:56:50;;;;;;;6.13;1.63;;;;;;;;;;5058742;28;20051;-62
2023/01/01 06:59:16;;;;;;;3.95;1.50;;;;;;;;;;5063504;28;20086;-62
2023/01/01 07:01:42;;;;;;;4.60;1.30;;;;;;;;;;5046591;28;20045;-62
2023/01/01 07:04:11;;;;;;;5.60;1.60;;;;;;;;;;5071356;28;20037;-62
2023/01/01 07:06:37;;;;;;;8.00;1.42;;;;;;;;;;5054978;28;20491;-62
2023/01/01 07:09:04;;;;;;;5.10;1.30;;;;;;;;;;5073035;28;20044;-62
2023/01/01 07:11:30;;;;;;;6.15;1.10;;;;;;;;;;5058795;28;20040;-63
2023/01/01 07:13:56;;;;;;;6.78;1.55;;;;;;;;;;5034176;28;20056;-62
2023/01/01 07:16:23;;;;;;;4.00;1.23;;;;;;;;;;5045990;28;20037;-62
2023/01/01 07:18:49;;;;;;;8.30;1.38;;;;;;;;;;5054632;28;20076;-62
2023/01/01 07:21:24;;;;;;;7.47;1.55;;;;;;;;;;5071959;28;20054;-62
2023/01/01 07:23:50;;;;;;;5.47;1.50;;;;;;;;;;5050618;28;20103;-62
2023/01/01 07:26:16;;;;;;;7.00;1.80;;;;;;;;;;5063493;28;20486;-62
2023/01/01 07:28:42;;;;;;;7.30;1.60;;;;;;;;;;5050456;28;20055;-62
2023/01/01 07:31:09;;;;;;;4.30;1.33;;;;;;;;;;5064276;28;20141;-63
2023/01/01 07:33:35;;;;;;;6.93;1.42;;;;;;;;;;5072051;28;20163;-63
2023/01/01 07:36:01;;;;;;;4.40;1.33;;;;;;;;;;5071384;28;20127;-63
2023/01/01 07:38:27;;;;;;;8.02;1.58;;;;;;;;;;5066691;28;20041;-63
2023/01/01 07:40:53;;;;;;;4.15;1.08;;;;;;;;;;5044536;28;20049;-63
2023/01/01 07:43:19;;;;;;;7.70;1.70;;;;;;;;;;5059119;28;20486;-63
2023/01/01 07:45:45;;;;;;;4.03;1.40;;;;;;;;;;5045087;28;20120;-63
2023/01/01 07:48:14;;;;;;;6.53;1.58;;;;;;;;;;5065594;22;20048;-67
2023/01/01 07:50:40;;;;;;;3.53;1.30;;;;;;;;;;5026914;28;20077;-67
2023/01/01 07:53:06;;;;;;;6.07;1.42;;;;;;;;;;5046517;28;20061;-67
2023/01/01 07:55:33;;;;;;;5.80;1.23;;;;;;;;;;5046362;28;20522;-67
2023/01/01 07:57:59;;;;;;;6.03;1.58;;;;;;;;;;5042867;28;20067;-67
2023/01/01 08:00:25;;;;;;;5.68;1.45;;;;;;;;;;5051844;28;20048;-67
2023/01/01 08:02:51;;;;;;;10.30;1.63;;;;;;;;;;5051109;28;20041;-67
2023/01/01 08:05:17;;;;;;;5.70;1.48;;;;;;;;;;5050544;28;20051;-67
2023/01/01 08:07:47;;;;;;;6.03;1.30;;;;;;;;;;5041008;28;20037;-67
2023/01/01 08:10:14;;;;;;;6.57;2.10;;;;;;;;;;5051186;28;20098;-67
2023/01/01 08:12:40;;;;;;;9.02;1.42;;;;;;;;;;5051531;28;20064;-67
2023/01/01 08:15:06;;;;;;;5.95;1.20;;;;;;;;;;5052011;28;20040;-67
2023/01/01 08:17:32;;;;;;;4.78;1.48;;;;;;;;;;5049867;28;20048;-67
2023/01/01 08:19:58;;;;;;;5.28;1.63;;;;;;;;;;5042291;28;20068;-67
2023/01/01 08:22:24;;;;;;;7.07;1.70;;;;;;;;;;5042602;28;20037;-67
2023/01/01 08:24:50;;;;;;;7.13;1.55;;;;;;;;;;5040725;28;20037;-67
2023/01/01 08:27:17;;;;;;;9.25;1.80;;;;;;;;;;5051128;28;20523;-67
2023/01/01 08:29:43;;;;;;;5.18;1.15;;;;;;;;;;5051289;28;20072;-67
2023/01/01 08:32:10;;;;;;;9.48;2.15;;;;;;;;;;5045384;28;20048;-67
2023/01/01 08:34:35;;;;;;;7.65;1.75;;;;;;;;;;5047842;28;20487;-67
2023/01/01 08:37:01;;;;;;;6.50;1.42;;;;;;;;;;5041223;28;20041;-67
2023/01/01 08:39:27;;;;;;;10.32;1.90;;;;;;;;;;5042135;28;20069;-67
2023/01/01 08:41:53;;;;;;;7.00;1.70;;;;;;;;;;5050256;28;20071;-67
2023/01/01 08:44:19;;;;;;;7.82;2.30;;;;;;;;;;5050864;28;20116;-67
2023/01/01 08:46:45;;;;;;;7.10;1.90;;;;;;;;;;5050210;28;20414;-67
2023/01/01 08:49:11;;;;;;;10.88;1.98;;;;;;;;;;5051257;28;20087;-66
2023/01/01 08:51:37;;;;;;;6.55;1.48;;;;;;;;;;5042256;28;20406;-67
2023/01/01 08:54:04;;;;;;;10.18;1.33;;;;;;;;;;5045376;28;20099;-66
2023/01/01 08:56:30;;;;;;;10.05;1.73;;;;;;;;;;5046215;28;20512;-67
2023/01/01 08:58:56;;;;;;;6.70;1.60;;;;;;;;;;5050878;28;20064;-67
2023/01/01 09:01:22;;;;;;;7.97;1.20;;;;;;;;;;5050314;28;20399;-67
2023/01/01 09:03:49;;;;;;;8.70;1.92;;;;;;;;;;5041833;28;20061;-67
2023/01/01 09:06:14;;;;;;;9.38;1.45;;;;;;;;;;5049881;28;20043;-67
2023/01/01 09:08:40;;;;;;;9.02;1.77;;;;;;;;;;5041496;28;20041;-67
2023/01/01 09:11:06;;;;;;;7.65;1.80;;;;;;;;;;5050560;28;20032;-67
2023/01/01 09:13:33;;;;;;;10.45;2.00;;;;;;;;;;5050882;28;20029;-67
2023/01/01 09:15:59;;;;;;;5.20;1.30;;;;;;;;;;5050474;28;20148;-67
2023/01/01 09:18:25;;;;;;;10.10;1.77;;;;;;;;;;5050290;28;20034;-67
2023/01/01 09:20:51;;;;;;;10.52;1.67;;;;;;;;;;5042824;28;20044;-67
2023/01/01 09:23:17;;;;;;;10.25;1.80;;;;;;;;;;5043091;28;20041;-67
2023/01/01 09:25:43;;;;;;;9.73;1.92;;;;;;;;;;5047976;28;20044;-67
2023/01/01 09:28:13;;;;;;;7.03;1.27;;;;;;;;;;5050337;28;20036;-67
2023/01/01 09:30:39;;;;;;;6.45;1.20;;;;;;;;;;5052044;28;20048;-67
2023/01/01 09:33:05;;;;;;;11.48;1.92;;;;;;;;;;5053097;28;20029;-67
2023/01/01 09:35:31;;;;;;;10.50;1.70;;;;;;;;;;5045812;28;20041;-67
2023/01/01 09:37:57;;;;;;;5.35;1.40;;;;;;;;;;5047593;28;20045;-67
2023/01/01 09:40:27;;;;;;;8.75;1.70;;;;;;;;;;5043103;28;20120;-67
2023/01/01 09:42:59;;;;;;;8.98;1.48;;;;;;;;;;5052582;28;20052;-67
2023/01/01 09:45:27;;;;;;;8.63;1.38;;;;;;;;;;5045329;28;20048;-67
2023/01/01 09:47:59;;;;;;;5.32;1.38;;;;;;;;;;5044541;28;20037;-68
2023/01/01 09:50:34;;;;;;;4.95;1.30;;;;;;;;;;5053928;28;20072;-68
2023/01/01 09:53:02;;;;;;;8.60;1.70;;;;;;;;;;5048566;28;20045;-67
2023/01/01 09:55:28;;;;;;;8.65;1.50;;;;;;;;;;5049381;28;20044;-67
2023/01/01 09:57:55;;;;;;;12.68;1.80;;;;;;;;;;5053812;28;20045;-67
2023/01/01 10:00:22;;;;;;;9.65;1.33;;;;;;;;;;5053999;28;20399;-67
2023/01/01 10:03:03;;;;;;;8.57;1.60;;;;;;;;;;5044136;28;20072;-67
2023/01/01 10:05:43;;;;;;;9.18;1.27;;;;;;;;;;5054155;28;20041;-67
2023/01/01 10:08:15;;;;;;;8.00;1.30;;;;;;;;;;5047135;28;20448;-67
2023/01/01 10:10:51;;;;;;;8.15;1.60;;;;;;;;;;5051216;28;20036;-67
2023/01/01 10:13:20;;;;;;;10.85;1.65;;;;;;;;;;5047264;28;20049;-67
2023/01/01 10:16:12;;;;;;;5.88;1.77;;;;;;;;;;5050520;28;20495;-67
2023/01/01 10:18:39;;;;;;;10.35;1.75;;;;;;;;;;5030186;28;20569;-67
2023/01/01 10:21:12;;;;;;;9.98;1.30;;;;;;;;;;5049048;28;20083;-67
2023/01/01 10:23:43;;;;;;;9.23;1.67;;;;;;;;;;5052351;28;20051;-66
2023/01/01 10:26:15;;;;;;;7.18;1.30;;;;;;;;;;5052590;28;20518;-66
2023/01/01 10:29:01;;;;;;;6.72;1.60;;;;;;;;;;5044792;28;20120;-67
2023/01/01 10:31:28;;;;;;;10.55;1.52;;;;;;;;;;5053344;28;20091;-67
2023/01/01 10:33:54;;;;;;;13.07;2.25;;;;;;;;;;5052920;28;20083;-67
2023/01/01 10:36:20;;;;;;;7.65;1.42;;;;;;;;;;5034325;28;20395;-66
2023/01/01 10:38:48;;;;;;;6.93;1.40;;;;;;;;;;5043739;28;20075;-67
2023/01/01 10:41:15;;;;;;;7.32;1.25;;;;;;;;;;5051471;28;20116;-67
2023/01/01 10:43:41;;;;;;;8.55;1.85;;;;;;;;;;5044162;28;20393;-67
2023/01/01 10:46:11;;;;;;;6.78;1.17;;;;;;;;;;5053420;28;20037;-67
2023/01/01 10:48:37;;;;;;;13.00;1.70;;;;;;;;;;5053046;28;20068;-67
2023/01/01 10:51:04;;;;;;;7.60;1.42;;;;;;;;;;5048260;28;20295;-67
2023/01/01 10:53:37;;;;;;;10.88;1.85;;;;;;;;;;5048116;28;20521;-67
2023/01/01 10:56:03;;;;;;;7.78;1.60;;;;;;;;;;5047090;28;20037;-67
2023/01/01 10:58:32;;;;;;;6.13;1.10;;;;;;;;;;5047617;28;20040;-67
2023/01/01 11:00:59;;;;;;;6.40;1.40;;;;;;;;;;5053173;28;20037;-67
2023/01/01 11:03:25;;;;;;;11.02;1.77;;;;;;;;;;5052364;28;20041;-66
2023/01/01 11:06:01;;;;;;;7.95;2.08;;;;;;;;;;5049453;28;20455;-67
2023/01/01 11:08:28;;;;;;;11.77;1.90;;;;;;;;;;5045640;28;20076;-67
2023/01/01 11:10:57;;;;;;;7.90;1.67;;;;;;;;;;5051746;28;20101;-67
2023/01/01 11:13:23;;;;;;;11.35;1.98;;;;;;;;;;5043427;28;20083;-67
2023/01/01 11:15:49;;;;;;;6.95;1.73;;;;;;;;;;5052013;28;20049;-67
2023/01/01 11:18:17;;;;;;;9.38;1.45;;;;;;;;;;5052223;28;20040;-67
2023/01/01 11:20:43;;;;;;;9.45;2.00;;;;;;;;;;5042972;28;20045;-67
2023/01/01 11:23:30;;;;;;;8.43;1.50;;;;;;;;;;5051729;28;20040;-67
2023/01/01 11:26:00;;;;;;;10.02;1.65;;;;;;;;;;5046712;28;20139;-67
2023/01/01 11:28:27;;;;;;;9.48;1.85;;;;;;;;;;5046962;28;20186;-67
2023/01/01 11:31:10;;;;;;;7.20;1.60;;;;;;;;;;5052174;28;20063;-67
2023/01/01 11:33:38;;;;;;;11.02;1.70;;;;;;;;;;5051507;28;20155;-67
2023/01/01 11:36:04;;;;;;;12.02;2.28;;;;;;;;;;5043899;28;20465;-67
2023/01/01 11:38:30;;;;;;;11.35;3.95;;;;;;;;;;5051570;28;20533;-67
2023/01/01 11:41:02;;;;;;;13.57;3.17;;;;;;;;;;5042499;28;20487;-67
2023/01/01 11:43:28;;;;;;;10.18;2.58;;;;;;;;;;5051675;28;20078;-67
2023/01/01 11:45:55;;;;;;;11.23;3.13;;;;;;;;;;5052112;28;20072;-67
2023/01/01 11:48:27;;;;;;;17.73;9.75;;;;;;;;;;5050092;28;20041;-66
2023/01/01 11:50:54;;;;;;;18.85;6.88;;;;;;;;;;5043477;28;20066;-66
2023/01/01 11:53:26;;;;;;;9.80;2.70;;;;;;;;;;5050298;28;20045;-66
2023/01/01 11:55:55;;;;;;;13.20;5.32;;;;;;;;;;5043168;28;20045;-66
2023/01/01 11:58:25;;;;;;;12.15;2.92;;;;;;;;;;5044654;28;20490;-67
2023/01/01 12:00:54;;;;;;;17.25;6.75;;;;;;;;;;5047288;28;20073;-67
2023/01/01 12:03:29;;;;;;;18.55;10.35;;;;;;;;;;5033016;28;20479;-67
2023/01/01 12:05:55;;;;;;;12.77;5.70;;;;;;;;;;5051348;28;20029;-67
2023/01/01 12:08:25;;;;;;;15.48;3.85;;;;;;;;;;5044468;28;20048;-67
2023/01/01 12:10:57;;;;;;;9.00;2.92;;;;;;;;;;5050126;28;20040;-67
2023/01/01 12:13:26;;;;;;;8.73;1.73;;;;;;;;;;5050098;28;20044;-67
2023/01/01 12:16:01;;;;;;;10.52;2.15;;;;;;;;;;5040417;28;20454;-67
2023/01/01 12:18:47;;;;;;;7.20;1.48;;;;;;;;;;5051064;28;20041;-67
2023/01/01 12:21:22;;;;;;;11.25;1.85;;;;;;;;;;5050189;28;20414;-67
2023/01/01 12:23:48;;;;;;;8.07;1.90;;;;;;;;;;5042554;28;20037;-67
2023/01/01 12:26:18;;;;;;;6.40;1.80;;;;;;;;;;5051743;28;20032;-67
2023/01/01 12:29:03;;;;;;;8.10;1.70;;;;;;;;;;5050834;28;20041;-67
2023/01/01 12:31:48;;;;;;;12.50;2.13;;;;;;;;;;5046047;28;20789;-67
2023/01/01 12:34:36;;;;;;;8.90;1.75;;;;;;;;;;5031296;28;20168;-67
2023/01/01 12:37:02;;;;;;;7.90;1.73;;;;;;;;;;5038955;28;20386;-67
2023/01/01 12:39:43;;;;;;;7.70;1.65;;;;;;;;;;5037563;28;20124;-67
2023/01/01 12:42:16;;;;;;;9.75;2.20;;;;;;;;;;5031257;28;20037;-67
2023/01/01 12:44:51;;;;;;;16.17;1.98;;;;;;;;;;5038899;28;20041;-67
2023/01/01 12:47:26;;;;;;;9.82;1.73;;;;;;;;;;5050832;28;20037;-67
2023/01/01 12:49:56;;;;;;;12.68;1.98;;;;;;;;;;5050055;28;20060;-67
2023/01/01 12:52:28;;;;;;;13.02;2.17;;;;;;;;;;5044575;28;20037;-67
2023/01/01 12:55:19;;;;;;;7.07;1.65;;;;;;;;;;5042552;28;20434;-67
2023/01/01 12:57:44;;;;;;;9.50;2.00;;;;;;;;;;5048939;28;20029;-67
2023/01/01 13:00:18;;;;;;;9.32;1.70;;;;;;;;;;5043420;28;20525;-67
2023/01/01 13:02:51;;;;;;;10.20;2.40;;;;;;;;;;5051235;28;20130;-67
2023/01/01 13:05:26;;;;;;;11.38;2.38;;;;;;;;;;5053075;28;20049;-67
2023/01/01 13:07:54;;;;;;;8.93;1.75;;;;;;;;;;5051874;28;20513;-67
2023/01/01 13:10:29;;;;;;;11.05;2.20;;;;;;;;;;5055420;28;20114;-67
2023/01/01 13:12:56;;;;;;;9.90;2.75;;;;;;;;;;5050703;28;20045;-67
2023/01/01 13:15:37;;;;;;;11.18;2.03;;;;;;;;;;5047321;28;20113;-67
2023/01/01 13:18:23;;;;;;;8.10;2.67;;;;;;;;;;5046724;28;20045;-67
2023/01/01 13:20:52;;;;;;;10.48;1.98;;;;;;;;;;5054334;28;20406;-67
2023/01/01 13:23:33;;;;;;;8.48;2.35;;;;;;;;;;5048014;28;20033;-67
2023/01/01 13:26:17;;;;;;;14.20;2.30;;;;;;;;;;5053688;28;20044;-67
2023/01/01 13:29:04;;;;;;;11.45;2.50;;;;;;;;;;5043682;28;20560;-67
2023/01/01 13:31:39;;;;;;;14.50;2.42;;;;;;;;;;5054709;28;20044;-67
2023/01/01 13:34:23;;;;;;;7.97;2.15;;;;;;;;;;5054472;28;20041;-67
2023/01/01 13:36:49;;;;;;;12.52;2.42;;;;;;;;;;5053322;28;20394;-66
2023/01/01 13:39:34;;;;;;;9.75;2.30;;;;;;;;;;5046092;28;20098;-67
2023/01/01 13:42:00;;;;;;;10.73;2.50;;;;;;;;;;5045131;28;20399;-67
2023/01/01 13:44:26;;;;;;;13.23;2.30;;;;;;;;;;5048812;28;20036;-68
2023/01/01 13:47:14;;;;;;;11.95;2.40;;;;;;;;;;5070272;23;20090;-65
2023/01/01 13:50:06;;;;;;;10.02;2.60;;;;;;;;;;5074156;28;20051;-65
2023/01/01 13:52:49;;;;;;;14.15;2.67;;;;;;;;;;5040512;28;20052;-66
2023/01/01 13:55:35;;;;;;;13.15;3.08;;;;;;;;;;5053323;28;20041;-65
2023/01/01 13:58:07;;;;;;;15.93;2.78;;;;;;;;;;4997813;28;20050;-65
2023/01/01 14:00:45;;;;;;;13.02;2.90;;;;;;;;;;5050205;28;20068;-66
2023/01/01 14:03:12;;;;;;;12.52;2.30;;;;;;;;;;5026472;28;20033;-65
2023/01/01 14:05:43;;;;;;;11.57;2.50;;;;;;;;;;5053483;28;20491;-65
2023/01/01 14:08:29;;;;;;;11.18;2.25;;;;;;;;;;5053929;28;20039;-65
2023/01/01 14:10:55;;;;;;;12.88;2.67;;;;;;;;;;5049695;28;20067;-66
2023/01/01 14:13:28;;;;;;;10.90;2.28;;;;;;;;;;5041913;28;20045;-66
2023/01/01 14:16:06;;;;;;;15.23;2.40;;;;;;;;;;5037174;28;20041;-65
2023/01/01 14:18:44;;;;;;;10.38;2.60;;;;;;;;;;5041443;28;20503;-66
2023/01/01 14:21:18;;;;;;;13.13;2.70;;;;;;;;;;5033939;28;20041;-65
2023/01/01 14:23:51;;;;;;;16.38;3.20;;;;;;;;;;5044126;28;20044;-65
2023/01/01 14:26:19;;;;;;;9.90;2.67;;;;;;;;;;5040715;28;20494;-66
2023/01/01 14:28:45;;;;;;;11.32;2.72;;;;;;;;;;5041511;28;20116;-65
2023/01/01 14:31:21;;;;;;;10.23;2.88;;;;;;;;;;5042569;28;20037;-65
2023/01/01 14:33:47;;;;;;;7.75;2.60;;;;;;;;;;5053391;28;20060;-65
2023/01/01 14:36:21;;;;;;;9.02;2.85;;;;;;;;;;5052324;28;20041;-65
2023/01/01 14:38:48;;;;;;;14.13;2.90;;;;;;;;;;5052994;28;20080;-65
2023/01/01 14:41:17;;;;;;;11.95;3.05;;;;;;;;;;5044177;28;20045;-66
2023/01/01 14:43:45;;;;;;;14.35;3.08;;;;;;;;;;5051812;28;20060;-65
2023/01/01 14:46:20;;;;;;;11.88;2.75;;;;;;;;;;5037293;28;20049;-65
2023/01/01 14:48:49;;;;;;;10.82;3.35;;;;;;;;;;5050756;28;20494;-65